Time;durP1;ratioP1;P1;durP2;ratioP2;P2;SDS_P1;SDS_P2;PMS_P1;PMS_P2;Temp;Humidity;BMP_temperature;BMP_pressure;BME280_temperature;BME280_humidity;BME280_pressure;Samples;Min_cycle;Max_cycle;Signal;HPM_P1;HPM_P2
2022/04/27 00:00:20;;;;;;;;;;;;;;;17.78;47.54;100762.31;5117563;28;1909;-54
2022/04/27 00:02:45;;;;;;;;;;;;;;;17.92;47.89;100772.72;5117364;28;861;-53
2022/04/27 00:05:10;;;;;;;;;;;;;;;18.05;48.65;100760.28;5117519;28;841;-53
2022/04/27 00:07:36;;;;;;;;;;;;;;;18.20;48.90;100764.88;5117405;28;804;-53
2022/04/27 00:10:02;;;;;;;;;;;;;;;18.29;49.30;100757.66;5116166;28;966;-54
2022/04/27 00:12:27;;;;;;;;;;;;;;;18.35;49.80;100752.94;5117504;28;1163;-55
2022/04/27 00:14:53;;;;;;;;;;;;;;;18.35;50.15;100755.69;5117066;28;850;-54
2022/04/27 00:17:18;;;;;;;;;;;;;;;18.46;50.26;100749.81;5117215;28;813;-53
2022/04/27 00:19:44;;;;;;;;;;;;;;;18.54;50.36;100744.81;5117374;28;1905;-53
2022/04/27 00:22:11;;;;;;;;;;;;;;;18.39;49.70;100754.00;5116636;28;960;-51
2022/04/27 00:24:37;;;;;;;;;;;;;;;18.12;48.16;100761.59;5115654;28;916;-54
2022/04/27 00:27:03;;;;;;;;;;;;;;;17.84;47.11;100743.00;5116947;28;825;-53
2022/04/27 00:29:28;;;;;;;;;;;;;;;17.59;45.35;100748.34;5117005;28;841;-54
2022/04/27 00:31:53;;;;;;;;;;;;;;;17.39;44.05;100753.91;5116467;28;849;-54
2022/04/27 00:34:19;;;;;;;;;;;;;;;17.21;42.96;100741.63;5117143;28;807;-54
2022/04/27 00:36:44;;;;;;;;;;;;;;;17.09;42.33;100748.22;5098020;28;1590;-53
2022/04/27 00:39:10;;;;;;;;;;;;;;;16.96;42.05;100754.31;5116575;28;1984;-52
2022/04/27 00:41:36;;;;;;;;;;;;;;;16.93;41.76;100747.44;5117257;28;820;-53
2022/04/27 00:44:02;;;;;;;;;;;;;;;16.81;41.34;100754.28;5116321;28;761;-53
2022/04/27 00:46:27;;;;;;;;;;;;;;;16.61;41.53;100742.22;5098076;28;1608;-53
2022/04/27 00:48:52;;;;;;;;;;;;;;;16.66;41.01;100746.88;5116300;28;836;-54
2022/04/27 00:51:19;;;;;;;;;;;;;;;16.64;41.77;100747.16;5098377;28;1529;-52
2022/04/27 00:53:44;;;;;;;;;;;;;;;16.87;42.42;100748.53;5098050;28;998;-53
2022/04/27 00:56:10;;;;;;;;;;;;;;;17.08;44.16;100749.34;5080500;28;848;-53
2022/04/27 00:58:35;;;;;;;;;;;;;;;17.36;46.01;100749.81;5116661;28;1909;-54
2022/04/27 01:01:01;;;;;;;;;;;;;;;17.79;48.22;100741.97;5116057;28;884;-53
2022/04/27 01:03:26;;;;;;;;;;;;;;;18.22;50.20;100741.47;5116376;28;815;-53
2022/04/27 01:05:52;;;;;;;;;;;;;;;18.72;51.74;100741.34;5116340;28;1079;-54
2022/04/27 01:08:18;;;;;;;;;;;;;;;19.01;52.38;100735.03;5116560;28;998;-54
2022/04/27 01:10:44;;;;;;;;;;;;;;;18.28;56.04;100736.75;5098291;28;1401;-56
2022/04/27 01:13:10;;;;;;;;;;;;;;;18.37;56.20;100739.69;5097678;28;1174;-56
2022/04/27 01:15:38;;;;;;;;;;;;;;;17.02;58.20;100744.94;5076756;28;1241;-55
2022/04/27 01:18:04;;;;;;;;;;;;;;;16.87;56.72;100736.69;5096132;28;1910;-56
2022/04/27 01:20:44;;;;;;;;;;;;;;;17.47;51.96;100747.03;5077798;28;1276;-55
2022/04/27 01:23:13;;;;;;;;;;;;;;;17.50;49.74;100749.22;5079263;28;1114;-57
2022/04/27 01:25:46;;;;;;;;;;;;;;;17.51;48.38;100743.44;5116298;28;745;-55
2022/04/27 01:28:11;;;;;;;;;;;;;;;17.43;47.42;100744.84;5115792;28;840;-55
2022/04/27 01:30:37;;;;;;;;;;;;;;;17.45;46.56;100756.38;5081127;28;1443;-55
2022/04/27 01:33:07;;;;;;;;;;;;;;;17.38;46.11;100753.09;5097356;28;1241;-55
2022/04/27 01:35:33;;;;;;;;;;;;;;;17.31;45.92;100749.84;5116274;28;839;-55
2022/04/27 01:38:01;;;;;;;;;;;;;;;17.36;45.38;100755.31;5115996;28;834;-56
2022/04/27 01:40:26;;;;;;;;;;;;;;;17.27;45.45;100757.00;5097235;28;1992;-55
2022/04/27 01:42:52;;;;;;;;;;;;;;;17.23;45.18;100758.66;5101233;28;1133;-57
2022/04/27 01:45:17;;;;;;;;;;;;;;;17.22;45.12;100760.59;5101647;28;1610;-57
2022/04/27 01:47:43;;;;;;;;;;;;;;;17.14;45.00;100763.06;5101972;28;1322;-55
2022/04/27 01:50:08;;;;;;;;;;;;;;;17.17;44.64;100766.06;5120173;28;1332;-56
2022/04/27 01:55:19;;;;;;;;;;;;;;;16.93;44.20;100763.09;5100355;28;1048;-55
2022/04/27 01:57:45;;;;;;;;;;;;;;;17.11;44.62;100761.72;5099078;28;1186;-56
2022/04/27 02:00:10;;;;;;;;;;;;;;;17.31;46.05;100752.59;5081171;28;1977;-56
2022/04/27 02:02:40;;;;;;;;;;;;;;;17.72;47.98;100776.38;5099259;28;948;-55
2022/04/27 02:05:06;;;;;;;;;;;;;;;18.15;49.60;100759.41;5106878;28;864;-56
2022/04/27 02:07:31;;;;;;;;;;;;;;;18.25;51.15;100754.66;5119674;28;983;-56
2022/04/27 02:09:57;;;;;;;;;;;;;;;18.56;52.15;100761.88;5100738;28;1086;-56
2022/04/27 02:12:22;;;;;;;;;;;;;;;18.78;52.93;100767.75;5101546;28;1180;-56
2022/04/27 02:15:02;;;;;;;;;;;;;;;17.74;56.17;100772.22;5086003;28;1152;-55
2022/04/27 02:17:30;;;;;;;;;;;;;;;17.84;55.64;100762.28;5100395;28;1140;-56
2022/04/27 02:19:56;;;;;;;;;;;;;;;16.58;60.23;100770.22;5101474;28;1905;-55
2022/04/27 02:22:21;;;;;;;;;;;;;;;17.63;55.58;100754.13;5101071;28;1113;-55
2022/04/27 02:24:47;;;;;;;;;;;;;;;18.13;53.66;100763.25;5100921;28;990;-56
2022/04/27 02:27:14;;;;;;;;;;;;;;;18.23;53.11;100750.53;5105877;28;1415;-57
2022/04/27 02:29:40;;;;;;;;;;;;;;;18.41;52.98;100758.13;5098904;28;722;-55
2022/04/27 02:32:18;;;;;;;;;;;;;;;18.45;52.39;100752.84;5080963;28;1166;-57
2022/04/27 02:34:44;;;;;;;;;;;;;;;18.53;51.99;100754.19;5080435;28;792;-57
2022/04/27 02:37:10;;;;;;;;;;;;;;;18.36;50.52;100751.84;5098334;28;1242;-57
2022/04/27 02:39:39;;;;;;;;;;;;;;;18.09;48.71;100750.34;5094318;28;1950;-57
2022/04/27 02:42:05;;;;;;;;;;;;;;;17.81;46.89;100754.59;5119449;28;813;-58
2022/04/27 02:44:31;;;;;;;;;;;;;;;17.43;45.13;100753.09;5118358;28;847;-56
2022/04/27 02:46:57;;;;;;;;;;;;;;;17.24;43.73;100744.63;5100778;28;1294;-57
2022/04/27 02:52:07;;;;;;;;;;;;;;;16.96;42.24;100757.03;5100393;28;1225;-55
2022/04/27 02:54:53;;;;;;;;;;;;;;;16.94;41.19;100759.22;5117441;28;1040;-57
2022/04/27 02:57:18;;;;;;;;;;;;;;;16.71;41.05;100764.16;5100248;28;1224;-57
2022/04/27 02:59:45;;;;;;;;;;;;;;;16.67;41.32;100770.50;5100417;28;1980;-58
2022/04/27 03:02:12;;;;;;;;;;;;;;;16.71;42.18;100786.13;5100786;28;1334;-55
2022/04/27 03:04:38;;;;;;;;;;;;;;;16.89;43.66;100790.28;5100514;28;1073;-55
2022/04/27 03:07:03;;;;;;;;;;;;;;;17.20;45.14;100790.25;5100014;28;1113;-55
2022/04/27 03:09:34;;;;;;;;;;;;;;;17.66;48.01;100800.31;5099987;28;966;-56
2022/04/27 03:11:59;;;;;;;;;;;;;;;18.09;50.35;100811.72;5100526;28;1281;-55
2022/04/27 03:14:31;;;;;;;;;;;;;;;18.55;52.28;100787.75;5099815;28;1169;-56
2022/04/27 03:16:56;;;;;;;;;;;;;;;19.07;53.16;100811.06;5100013;28;776;-56
2022/04/27 03:19:22;;;;;;;;;;;;;;;18.34;56.80;100798.94;5118659;28;1905;-56
2022/04/27 03:21:48;;;;;;;;;;;;;;;18.24;56.25;100801.72;5117870;28;948;-57
2022/04/27 03:24:14;;;;;;;;;;;;;;;16.45;57.33;100792.69;5100047;28;1334;-57
2022/04/27 03:26:40;;;;;;;;;;;;;;;17.04;51.81;100794.09;5100267;28;1265;-55
2022/04/27 03:29:05;;;;;;;;;;;;;;;17.27;47.73;100809.22;5106305;28;1222;-56
2022/04/27 03:31:32;;;;;;;;;;;;;;;17.12;45.50;100792.75;5079645;28;1181;-57
2022/04/27 03:33:59;;;;;;;;;;;;;;;17.03;43.56;100807.03;5084490;28;1167;-56
2022/04/27 03:36:25;;;;;;;;;;;;;;;16.89;42.22;100800.44;5117907;28;822;-56
2022/04/27 03:38:51;;;;;;;;;;;;;;;16.65;41.99;100817.44;5099379;28;1981;-56
2022/04/27 03:41:19;;;;;;;;;;;;;;;16.59;41.81;100807.53;5118253;28;749;-56
2022/04/27 03:43:49;;;;;;;;;;;;;;;16.74;42.78;100814.97;5099227;28;1362;-56
2022/04/27 03:46:16;;;;;;;;;;;;;;;16.84;43.68;100814.16;5099322;28;1245;-58
2022/04/27 03:48:42;;;;;;;;;;;;;;;17.31;46.68;100817.72;5099783;28;1294;-58
2022/04/27 03:51:08;;;;;;;;;;;;;;;17.85;49.70;100819.78;5099660;28;1223;-58
2022/04/27 03:53:34;;;;;;;;;;;;;;;18.27;52.11;100818.50;5099783;28;1256;-56
2022/04/27 03:56:00;;;;;;;;;;;;;;;18.67;53.66;100825.97;5093841;28;1691;-58
2022/04/27 03:58:26;;;;;;;;;;;;;;;18.92;54.53;100833.25;5088186;28;1962;-57
2022/04/27 04:00:52;;;;;;;;;;;;;;;17.81;56.78;100821.44;5097535;28;1462;-57
2022/04/27 04:03:21;;;;;;;;;;;;;;;17.27;54.91;100828.44;5099496;28;1191;-57
2022/04/27 04:05:47;;;;;;;;;;;;;;;16.67;52.81;100839.13;5087349;28;1595;-57
2022/04/27 04:08:13;;;;;;;;;;;;;;;16.94;48.44;100816.91;5099322;28;892;-57
2022/04/27 04:10:39;;;;;;;;;;;;;;;16.95;45.64;100821.31;5081954;28;1220;-57
2022/04/27 04:13:05;;;;;;;;;;;;;;;16.77;44.13;100834.47;5080768;28;1212;-57
2022/04/27 04:15:42;;;;;;;;;;;;;;;16.69;43.06;100840.50;5097926;28;797;-57
2022/04/27 04:18:26;;;;;;;;;;;;;;;16.61;42.49;100843.78;5116672;28;1889;-57
2022/04/27 04:21:14;;;;;;;;;;;;;;;16.56;41.80;100841.03;5116707;28;1393;-57
2022/04/27 04:24:12;;;;;;;;;;;;;;;16.66;42.60;100846.56;5090645;28;1188;-57
2022/04/27 04:29:31;;;;;;;;;;;;;;;18.07;50.71;100843.38;5078836;28;785;-57
2022/04/27 04:31:58;;;;;;;;;;;;;;;18.35;52.69;100850.09;5081160;28;1112;-57
2022/04/27 04:34:36;;;;;;;;;;;;;;;18.35;52.73;100850.09;5078941;28;1069;-57
2022/04/27 04:37:02;;;;;;;;;;;;;;;18.25;52.74;100847.41;5080132;28;1285;-57
2022/04/27 04:39:28;;;;;;;;;;;;;;;18.12;50.90;100846.91;5083992;28;1902;-57
2022/04/27 04:41:54;;;;;;;;;;;;;;;17.93;49.81;100854.16;5089398;28;1313;-55
2022/04/27 04:44:19;;;;;;;;;;;;;;;17.84;48.61;100853.03;5098230;28;1221;-57
2022/04/27 04:47:03;;;;;;;;;;;;;;;17.72;47.76;100856.94;5116307;28;741;-58
2022/04/27 04:49:47;;;;;;;;;;;;;;;17.65;46.98;100850.91;5115916;28;705;-58
2022/04/27 04:52:33;;;;;;;;;;;;;;;17.63;46.86;100858.63;5096577;28;1000;-56
2022/04/27 04:55:33;;;;;;;;;;;;;;;17.58;46.56;100861.38;5033952;28;1326;-56
2022/04/27 04:58:17;;;;;;;;;;;;;;;17.53;45.98;100859.47;5073714;28;1901;-56
2022/04/27 05:01:06;;;;;;;;;;;;;;;17.48;46.06;100859.47;5108307;28;1226;-58
2022/04/27 05:03:51;;;;;;;;;;;;;;;17.50;45.73;100865.53;5084683;28;1320;-57
2022/04/27 05:06:29;;;;;;;;;;;;;;;17.48;45.38;100866.91;5078645;28;1184;-56
2022/04/27 05:09:02;;;;;;;;;;;;;;;17.41;45.46;100868.00;5079399;28;1080;-56
2022/04/27 05:11:43;;;;;;;;;;;;;;;17.42;45.49;100868.84;5097165;28;1212;-56
2022/04/27 05:14:44;;;;;;;;;;;;;;;17.37;45.13;100866.91;5036191;28;1235;-57
2022/04/27 05:17:41;;;;;;;;;;;;;;;17.31;45.46;100878.19;5050522;28;1155;-55
2022/04/27 05:20:22;;;;;;;;;;;;;;;17.31;45.22;100876.25;5078222;28;1903;-56
2022/04/27 05:23:02;;;;;;;;;;;;;;;17.27;45.03;100877.91;5078541;28;1221;-56
2022/04/27 05:25:53;;;;;;;;;;;;;;;17.31;45.20;100879.00;5069505;28;1203;-56
2022/04/27 05:31:54;;;;;;;;;;;;;;;17.30;45.12;100882.84;5111444;28;615;-56
2022/04/27 05:34:35;;;;;;;;;;;;;;;17.38;45.23;100886.97;5098849;28;1096;-57
2022/04/27 05:37:12;;;;;;;;;;;;;;;17.54;46.06;100896.03;5079722;28;1393;-58
2022/04/27 05:39:46;;;;;;;;;;;;;;;17.64;46.60;100898.75;5096987;28;1917;-58
2022/04/27 05:42:35;;;;;;;;;;;;;;;17.72;47.10;100900.94;5083685;28;1175;-57
2022/04/27 05:45:20;;;;;;;;;;;;;;;17.88;47.62;100898.13;5102097;28;1036;-59
2022/04/27 05:48:12;;;;;;;;;;;;;;;18.06;47.66;100905.00;5098045;28;1114;-58
2022/04/27 05:50:56;;;;;;;;;;;;;;;18.18;47.97;100907.44;5106183;28;1015;-57
2022/04/27 05:53:41;;;;;;;;;;;;;;;18.19;47.98;100900.81;5085614;28;1222;-56
2022/04/27 05:56:25;;;;;;;;;;;;;;;18.23;48.09;100904.66;5098623;28;619;-57
2022/04/27 05:59:04;;;;;;;;;;;;;;;18.26;48.53;100904.13;5097448;28;1914;-56
2022/04/27 06:01:48;;;;;;;;;;;;;;;18.27;48.40;100901.09;5115647;28;649;-57
2022/04/27 06:04:13;;;;;;;;;;;;;;;18.38;48.55;100896.31;5077646;28;1337;-57
2022/04/27 06:06:43;;;;;;;;;;;;;;;18.37;48.47;100902.97;5109151;28;844;-56
2022/04/27 06:09:11;;;;;;;;;;;;;;;18.40;48.53;100899.63;5080951;28;1153;-57
2022/04/27 06:12:03;;;;;;;;;;;;;;;18.43;48.27;100896.31;5091630;28;1174;-56
2022/04/27 06:14:35;;;;;;;;;;;;;;;18.30;47.49;100894.19;5095782;28;1237;-56
2022/04/27 06:17:02;;;;;;;;;;;;;;;18.08;46.32;100903.63;5076899;28;1216;-56
2022/04/27 06:19:27;;;;;;;;;;;;;;;17.77;44.84;100898.19;5085123;28;1964;-57
2022/04/27 06:21:56;;;;;;;;;;;;;;;17.61;43.50;100905.66;5082584;28;1190;-57
2022/04/27 06:24:23;;;;;;;;;;;;;;;17.43;42.65;100896.03;5082719;28;1486;-57
2022/04/27 06:26:54;;;;;;;;;;;;;;;17.27;41.64;100899.91;5090268;28;1346;-56
2022/04/27 06:29:19;;;;;;;;;;;;;;;17.15;41.36;100907.59;5096868;28;1186;-59
2022/04/27 06:31:48;;;;;;;;;;;;;;;16.99;40.84;100904.81;5097349;28;1139;-56
2022/04/27 06:34:15;;;;;;;;;;;;;;;16.91;40.54;100902.63;5083443;28;1126;-56
2022/04/27 06:36:41;;;;;;;;;;;;;;;16.80;40.44;100909.16;5081341;28;1225;-56
2022/04/27 06:39:18;;;;;;;;;;;;;;;16.94;41.17;100913.06;5084217;28;1901;-56
2022/04/27 06:41:44;;;;;;;;;;;;;;;17.34;42.90;100925.19;5092182;28;1243;-56
2022/04/27 06:44:34;;;;;;;;;;;;;;;18.08;46.73;100917.38;5071019;28;1214;-56
2022/04/27 06:47:18;;;;;;;;;;;;;;;18.69;49.34;100917.38;5107330;28;1044;-56
2022/04/27 06:50:02;;;;;;;;;;;;;;;19.16;50.58;100924.25;5099269;28;922;-57
2022/04/27 06:52:50;;;;;;;;;;;;;;;18.47;54.11;100929.63;5062974;28;1424;-58
2022/04/27 06:55:35;;;;;;;;;;;;;;;18.27;53.93;100938.78;5116033;28;1104;-57
2022/04/27 06:58:26;;;;;;;;;;;;;;;16.33;55.84;100936.47;5079688;28;1972;-56
2022/04/27 07:01:02;;;;;;;;;;;;;;;17.03;50.52;100944.38;5094964;28;1311;-56
2022/04/27 07:03:30;;;;;;;;;;;;;;;17.26;47.17;100948.56;5118373;28;833;-56
2022/04/27 07:05:56;;;;;;;;;;;;;;;17.26;45.45;100953.19;5100713;28;878;-56
2022/04/27 07:08:21;;;;;;;;;;;;;;;17.23;44.07;100953.75;5098869;28;1928;-56
2022/04/27 07:10:49;;;;;;;;;;;;;;;17.15;43.86;100957.84;5104378;28;822;-56
2022/04/27 07:13:14;;;;;;;;;;;;;;;17.44;45.13;100960.91;5098411;28;1185;-56
2022/04/27 07:15:39;;;;;;;;;;;;;;;17.72;46.68;100966.13;5098647;28;877;-56
2022/04/27 07:18:05;;;;;;;;;;;;;;;18.17;49.04;100966.34;5098391;28;849;-55
2022/04/27 07:20:31;;;;;;;;;;;;;;;18.45;50.58;100968.47;5098200;28;1905;-56
2022/04/27 07:22:56;;;;;;;;;;;;;;;18.73;51.21;100971.63;5100464;28;824;-56
2022/04/27 07:25:21;;;;;;;;;;;;;;;18.85;51.91;100965.78;5105074;28;790;-57
2022/04/27 07:27:47;;;;;;;;;;;;;;;18.09;53.84;100968.56;5098363;28;868;-56
2022/04/27 07:30:13;;;;;;;;;;;;;;;17.89;52.96;100971.31;5098324;28;845;-56
2022/04/27 07:32:38;;;;;;;;;;;;;;;16.52;54.80;100977.16;5098139;28;784;-56
2022/04/27 07:35:04;;;;;;;;;;;;;;;17.43;49.77;100974.91;5099654;28;996;-55
2022/04/27 07:37:29;;;;;;;;;;;;;;;17.63;47.90;100974.13;5103676;28;1269;-56
2022/04/27 07:39:55;;;;;;;;;;;;;;;17.63;46.89;100974.13;5105667;28;1913;-56
2022/04/27 07:42:21;;;;;;;;;;;;;;;17.62;45.90;100977.97;5097384;28;1147;-55
2022/04/27 07:44:46;;;;;;;;;;;;;;;17.55;45.59;100980.16;5100169;28;1000;-57
2022/04/27 07:47:13;;;;;;;;;;;;;;;17.59;45.28;100978.50;5108598;28;749;-56
2022/04/27 07:49:38;;;;;;;;;;;;;;;17.60;44.93;100986.47;5106966;28;786;-56
2022/04/27 07:52:04;;;;;;;;;;;;;;;17.53;44.85;100985.94;5107527;28;813;-56
2022/04/27 07:54:29;;;;;;;;;;;;;;;17.43;44.57;100988.66;5107150;28;831;-56
2022/04/27 07:56:55;;;;;;;;;;;;;;;17.42;44.38;100990.59;5099949;28;1072;-56
2022/04/27 07:59:20;;;;;;;;;;;;;;;17.42;44.73;100990.59;5115922;28;1961;-56
2022/04/27 08:01:46;;;;;;;;;;;;;;;17.76;45.11;100997.47;5114723;28;865;-57
2022/04/27 08:04:11;;;;;;;;;;;;;;;18.01;45.27;100996.66;5098661;28;1408;-58
2022/04/27 08:06:37;;;;;;;;;;;;;;;18.08;45.28;100991.69;5115071;28;833;-58
2022/04/27 08:09:02;;;;;;;;;;;;;;;18.12;45.19;100997.47;5108903;28;953;-58
2022/04/27 08:11:28;;;;;;;;;;;;;;;18.08;44.97;100999.94;5097047;28;842;-58
2022/04/27 08:13:53;;;;;;;;;;;;;;;17.92;44.05;101012.91;5098411;28;1182;-57
2022/04/27 08:16:18;;;;;;;;;;;;;;;17.79;43.00;101024.44;5096699;28;799;-57
2022/04/27 08:18:45;;;;;;;;;;;;;;;17.57;42.02;101022.78;5096437;28;1905;-57
2022/04/27 08:21:14;;;;;;;;;;;;;;;17.45;41.53;101016.72;5097242;28;840;-57
2022/04/27 08:23:40;;;;;;;;;;;;;;;17.37;40.68;101020.00;5109657;28;827;-56
2022/04/27 08:26:06;;;;;;;;;;;;;;;17.32;40.42;101022.75;5097365;28;774;-57
2022/04/27 08:28:32;;;;;;;;;;;;;;;17.24;40.15;101019.44;5101584;28;996;-57
2022/04/27 08:30:58;;;;;;;;;;;;;;;17.16;39.72;101022.72;5098167;28;1084;-57
2022/04/27 08:33:23;;;;;;;;;;;;;;;17.06;39.55;101029.00;5096759;28;881;-57
2022/04/27 08:35:49;;;;;;;;;;;;;;;17.04;39.47;101022.13;5098484;28;1071;-57
2022/04/27 08:38:14;;;;;;;;;;;;;;;16.94;39.21;101017.44;5108377;28;1074;-56
2022/04/27 08:40:48;;;;;;;;;;;;;;;16.89;39.33;101018.25;5098754;28;1979;-57
2022/04/27 08:43:14;;;;;;;;;;;;;;;16.86;38.87;101020.69;5097067;28;834;-57
2022/04/27 08:45:43;;;;;;;;;;;;;;;16.78;38.96;101022.03;5096769;28;840;-56
2022/04/27 08:48:09;;;;;;;;;;;;;;;16.87;39.55;101030.56;5096704;28;934;-57
2022/04/27 08:50:35;;;;;;;;;;;;;;;16.97;40.63;101016.06;5096920;28;1040;-56
2022/04/27 08:53:00;;;;;;;;;;;;;;;17.17;41.96;101026.31;5081316;28;904;-57
2022/04/27 08:55:28;;;;;;;;;;;;;;;17.40;43.49;101009.31;5078525;28;898;-57
2022/04/27 08:57:54;;;;;;;;;;;;;;;17.74;45.65;101024.41;5096933;28;778;-56
2022/04/27 09:00:20;;;;;;;;;;;;;;;17.99;47.00;101026.34;5096460;28;1905;-56
2022/04/27 09:02:46;;;;;;;;;;;;;;;18.23;48.28;101021.09;5096383;28;766;-57
2022/04/27 09:05:12;;;;;;;;;;;;;;;18.42;48.99;101020.50;5078383;28;1211;-57
2022/04/27 09:07:44;;;;;;;;;;;;;;;18.22;49.80;101016.69;5096378;28;877;-57
2022/04/27 09:10:10;;;;;;;;;;;;;;;17.60;49.57;101018.66;5102511;28;900;-57
2022/04/27 09:12:38;;;;;;;;;;;;;;;17.56;47.70;101012.06;5100257;28;1192;-57
2022/04/27 09:15:05;;;;;;;;;;;;;;;17.57;45.14;101010.94;5115734;28;873;-57
2022/04/27 09:23:02;;;;;;;;;;;;;;;17.24;41.44;101010.38;5096782;28;824;-57
2022/04/27 09:25:31;;;;;;;;;;;;;;;17.17;40.85;101012.56;5100436;28;781;-57
2022/04/27 09:27:58;;;;;;;;;;;;;;;17.13;40.39;101011.47;5096447;28;734;-57
2022/04/27 09:30:26;;;;;;;;;;;;;;;17.07;40.18;101018.88;5098741;28;822;-57
2022/04/27 09:32:52;;;;;;;;;;;;;;;17.00;39.89;101019.13;5115952;28;877;-57
2022/04/27 09:35:33;;;;;;;;;;;;;;;16.97;39.72;101027.91;5116281;28;928;-57
2022/04/27 09:38:15;;;;;;;;;;;;;;;16.91;39.70;101023.47;5115827;28;894;-57
2022/04/27 09:40:43;;;;;;;;;;;;;;;16.99;40.50;101031.19;5096159;28;1890;-57
2022/04/27 09:43:09;;;;;;;;;;;;;;;17.13;41.77;101037.00;5105197;28;996;-56
2022/04/27 09:45:34;;;;;;;;;;;;;;;17.36;42.92;101032.09;5096524;28;877;-57
2022/04/27 09:48:03;;;;;;;;;;;;;;;17.51;43.89;101025.81;5098218;28;1115;-57
2022/04/27 09:50:44;;;;;;;;;;;;;;;17.60;44.41;101032.41;5115272;28;753;-57
2022/04/27 09:53:10;;;;;;;;;;;;;;;17.69;45.12;101036.25;5114509;28;853;-57
2022/04/27 09:55:36;;;;;;;;;;;;;;;17.81;45.45;101040.66;5096651;28;1047;-56
2022/04/27 09:58:01;;;;;;;;;;;;;;;17.85;45.72;101042.59;5083993;28;729;-57
2022/04/27 10:00:28;;;;;;;;;;;;;;;17.95;45.51;101044.53;5077247;28;1926;-58
2022/04/27 10:02:54;;;;;;;;;;;;;;;17.96;45.85;101048.94;5078492;28;870;-57
2022/04/27 10:05:21;;;;;;;;;;;;;;;18.01;46.07;101039.88;5081085;28;1183;-57
2022/04/27 10:07:46;;;;;;;;;;;;;;;18.09;45.90;101042.88;5081469;28;1075;-57
2022/04/27 10:10:12;;;;;;;;;;;;;;;18.06;45.72;101046.19;5096853;28;1005;-57
2022/04/27 10:12:39;;;;;;;;;;;;;;;17.95;45.06;101042.59;5100727;28;1163;-57
2022/04/27 10:15:05;;;;;;;;;;;;;;;17.78;44.04;101042.88;5119164;28;781;-56
2022/04/27 10:17:31;;;;;;;;;;;;;;;17.66;42.76;101039.56;5119378;28;797;-57
2022/04/27 10:19:56;;;;;;;;;;;;;;;17.47;41.79;101041.19;5100823;28;1913;-56
2022/04/27 10:22:25;;;;;;;;;;;;;;;17.39;40.82;101040.63;5101529;28;1104;-58
2022/04/27 10:24:50;;;;;;;;;;;;;;;17.29;40.27;101040.59;5108315;28;949;-58
2022/04/27 10:27:22;;;;;;;;;;;;;;;17.19;39.96;101041.41;5114294;28;789;-57
2022/04/27 10:29:51;;;;;;;;;;;;;;;17.07;40.02;101035.34;5099569;28;878;-56
2022/04/27 10:32:35;;;;;;;;;;;;;;;17.06;39.43;101037.25;5099507;28;796;-57
2022/04/27 10:35:25;;;;;;;;;;;;;;;16.98;39.52;101029.53;5105539;28;1057;-59
2022/04/27 10:38:00;;;;;;;;;;;;;;;16.96;38.98;101034.50;5109391;28;1020;-59
2022/04/27 10:40:26;;;;;;;;;;;;;;;16.91;39.51;101038.06;5099162;28;1905;-58
2022/04/27 10:42:51;;;;;;;;;;;;;;;17.12;41.31;101029.84;5081343;28;870;-59
2022/04/27 10:45:23;;;;;;;;;;;;;;;17.63;44.40;101037.38;5080839;28;869;-59
2022/04/27 10:47:49;;;;;;;;;;;;;;;18.00;46.68;101029.94;5104501;28;833;-60
2022/04/27 10:50:14;;;;;;;;;;;;;;;18.36;48.00;101036.22;5081936;28;855;-60
2022/04/27 10:52:43;;;;;;;;;;;;;;;18.53;48.72;101019.34;5099138;28;873;-60
2022/04/27 10:55:28;;;;;;;;;;;;;;;18.40;47.81;101029.03;5110150;28;900;-60
2022/04/27 10:58:12;;;;;;;;;;;;;;;18.10;46.42;101021.66;5118786;28;1244;-60
2022/04/27 11:00:56;;;;;;;;;;;;;;;17.85;44.17;101030.75;5108417;28;1974;-60
2022/04/27 11:03:22;;;;;;;;;;;;;;;17.59;43.00;101020.56;5099238;28;750;-60
2022/04/27 11:05:47;;;;;;;;;;;;;;;17.49;41.97;101014.22;5080673;28;921;-61
2022/04/27 11:08:39;;;;;;;;;;;;;;;17.42;41.06;101020.03;5091688;28;874;-60
2022/04/27 11:11:09;;;;;;;;;;;;;;;17.29;40.59;101013.13;5099111;28;1023;-62
2022/04/27 11:13:35;;;;;;;;;;;;;;;17.20;40.17;101025.75;5103405;28;1152;-59
2022/04/27 11:16:07;;;;;;;;;;;;;;;17.17;39.95;101015.31;5098337;28;742;-59
2022/04/27 11:18:49;;;;;;;;;;;;;;;17.10;39.63;101013.63;5099054;28;1977;-59
2022/04/27 11:21:14;;;;;;;;;;;;;;;17.03;39.53;101015.81;5098514;28;905;-58
2022/04/27 11:23:40;;;;;;;;;;;;;;;17.01;39.58;101011.69;5082392;28;786;-58
2022/04/27 11:26:06;;;;;;;;;;;;;;;16.96;39.54;101018.00;5100123;28;889;-60
2022/04/27 11:28:32;;;;;;;;;;;;;;;16.92;39.12;101016.88;5098056;28;836;-59
2022/04/27 11:30:57;;;;;;;;;;;;;;;16.97;40.02;101007.84;5080526;28;1052;-60
2022/04/27 11:33:23;;;;;;;;;;;;;;;17.10;41.17;101010.88;5102616;28;1348;-58
2022/04/27 11:35:49;;;;;;;;;;;;;;;17.27;42.18;101007.88;5101437;28;1258;-59
2022/04/27 11:38:18;;;;;;;;;;;;;;;17.40;42.86;100998.31;5101390;28;1325;-58
2022/04/27 11:40:44;;;;;;;;;;;;;;;17.49;43.16;101003.25;5100868;28;2047;-58
2022/04/27 11:43:09;;;;;;;;;;;;;;;17.53;43.95;100998.84;5100293;28;1253;-59
2022/04/27 11:45:35;;;;;;;;;;;;;;;17.63;44.19;101004.38;5102093;28;1339;-60
2022/04/27 11:48:01;;;;;;;;;;;;;;;17.69;44.26;100997.75;5100286;28;1280;-59
2022/04/27 11:50:29;;;;;;;;;;;;;;;17.69;44.51;101006.00;5099700;28;1312;-59
2022/04/27 11:53:07;;;;;;;;;;;;;;;17.72;44.81;100999.94;5100956;28;1142;-59
2022/04/27 11:55:33;;;;;;;;;;;;;;;17.82;44.59;100999.09;5101487;28;1178;-57
2022/04/27 11:57:59;;;;;;;;;;;;;;;17.83;44.67;100997.19;5113528;28;1190;-60
2022/04/27 12:00:28;;;;;;;;;;;;;;;17.90;44.64;100992.25;5117573;28;1960;-60
2022/04/27 12:03:04;;;;;;;;;;;;;;;17.90;44.65;101001.31;5117073;28;824;-58
2022/04/27 12:05:30;;;;;;;;;;;;;;;17.94;44.67;101002.44;5100484;28;920;-58
2022/04/27 12:07:56;;;;;;;;;;;;;;;17.94;44.69;100987.88;5097849;28;871;-58
2022/04/27 12:10:22;;;;;;;;;;;;;;;17.92;44.85;101001.06;5081826;28;965;-59
2022/04/27 12:12:47;;;;;;;;;;;;;;;17.94;44.47;101004.38;5100168;28;1142;-59
2022/04/27 12:15:13;;;;;;;;;;;;;;;18.01;44.49;101001.34;5105493;28;1068;-58
2022/04/27 12:17:39;;;;;;;;;;;;;;;18.01;44.53;100996.66;5082363;28;1250;-59
2022/04/27 12:20:06;;;;;;;;;;;;;;;18.03;44.49;100988.94;5080409;28;1898;-60
2022/04/27 12:22:32;;;;;;;;;;;;;;;18.08;44.37;100990.88;5078326;28;1234;-58
2022/04/27 12:25:01;;;;;;;;;;;;;;;18.03;44.70;100988.94;5078164;28;1253;-62
2022/04/27 12:27:26;;;;;;;;;;;;;;;18.06;44.19;100993.91;5078363;28;1016;-59
2022/04/27 12:29:52;;;;;;;;;;;;;;;18.01;43.68;100985.66;5080068;28;1107;-59
2022/04/27 12:32:18;;;;;;;;;;;;;;;17.83;42.94;100991.69;5095321;28;1417;-58
2022/04/27 12:37:31;;;;;;;;;;;;;;;17.59;41.44;100984.00;5095963;28;841;-58
2022/04/27 12:39:57;;;;;;;;;;;;;;;17.50;40.91;100985.66;5080061;28;1982;-58
2022/04/27 12:42:23;;;;;;;;;;;;;;;17.43;40.39;100980.41;5075684;28;958;-57
2022/04/27 12:44:48;;;;;;;;;;;;;;;17.41;40.37;100991.69;5083535;28;1273;-59
2022/04/27 12:47:14;;;;;;;;;;;;;;;17.32;40.18;100985.09;5078921;28;1253;-60
2022/04/27 12:49:44;;;;;;;;;;;;;;;17.24;39.84;100991.13;5077057;28;773;-59
2022/04/27 12:52:16;;;;;;;;;;;;;;;17.17;39.86;100985.09;5077050;28;840;-58
2022/04/27 12:54:41;;;;;;;;;;;;;;;17.10;40.03;100988.91;5076323;28;853;-61
2022/04/27 12:57:07;;;;;;;;;;;;;;;17.13;39.58;100998.53;5076378;28;824;-60
2022/04/27 12:59:33;;;;;;;;;;;;;;;17.08;39.51;100984.78;5076299;28;1887;-60
2022/04/27 13:02:00;;;;;;;;;;;;;;;17.02;39.56;100978.44;5076900;28;800;-61
2022/04/27 13:04:27;;;;;;;;;;;;;;;17.06;40.32;100976.81;5076829;28;766;-60
2022/04/27 13:06:53;;;;;;;;;;;;;;;17.26;41.01;100981.53;5075729;28;1373;-60
2022/04/27 13:12:02;;;;;;;;;;;;;;;17.56;43.10;100982.63;5076306;28;758;-61
2022/04/27 13:14:28;;;;;;;;;;;;;;;17.69;43.46;100981.25;5076378;28;1207;-59
2022/04/27 13:16:53;;;;;;;;;;;;;;;17.72;44.20;100983.44;5076459;28;821;-59
2022/04/27 13:19:19;;;;;;;;;;;;;;;17.82;44.57;100982.59;5078199;28;1898;-58
2022/04/27 13:21:44;;;;;;;;;;;;;;;17.88;44.64;100976.00;5077554;28;1034;-59
2022/04/27 13:24:11;;;;;;;;;;;;;;;17.93;45.09;100983.47;5079285;28;785;-59